• Join FlightAware (Why Join?)
  • Login
  • US Flag 
09:35PM EDT


 

Airport Tracker/Info


-or-


 

Live Flight TrackerFlight Track Log ✈ N680AN ✈ 26-Apr-2013 ✈ KMCO - KDFW

Flight Track Log - Related Links

Times and Time Zones

All times are in EDT time to prevent confusion due to time zone crossing. See the N680AN flight status page for this flight to view local times or setup timezone preferences in your user account.

Time Position Orientation Groundspeed Altitude Reporting Facility
EDT Latitude Longitude Course Direction KTS MPH feet Rate Location/Type
08:19AM 28.4167 -81.3333 270° West 173 199 800  Level Orlando TRACON
08:20AM 28.3500 -81.3500 192° South 270 311 3,200 2,580 Climbing Orlando TRACON
08:21AM 28.4167 -81.6472 270° West  Level FlightAware Approximate
08:21AM 28.3333 -81.4333 257° West 271 312 6,300  Level Orlando TRACON
08:22AM 28.4167 -81.7629 270° West  Level FlightAware Approximate
08:22AM 28.3167 -81.5167 257° West 285 328 9,300  Level Orlando TRACON
08:23AM 28.4167 -81.8787 270° West  Level FlightAware Approximate
08:24AM 28.4167 -81.9944 270° West  Level FlightAware Approximate
08:24AM 28.3136 -81.7303 269° West 347 399 13,900  Level Jacksonville Center
08:25AM 28.3272 -81.8478 278° West 368 423 16,300 2,160 Climbing Jacksonville Center
08:26AM 28.3658 -81.9678 290° West 389 448 18,300 2,160 Climbing Jacksonville Center
08:27AM 28.4042 -82.0950 289° West 400 460 20,700 2,340 Climbing Jacksonville Center
08:28AM 28.4444 -82.2222 290° West 422 486 23,000 2,220 Climbing Jacksonville Center
08:29AM 28.4869 -82.3517 291° West 432 497 25,200 1,980 Climbing Jacksonville Center
08:30AM 28.5561 -82.4647 305° West 432 497 27,000 1,980 Climbing Jacksonville Center
08:31AM 28.6567 -82.5567 321° Northwest 438 504 29,300 2,280 Climbing Jacksonville Center
08:32AM 28.7403 -82.6322 322° Northwest 433 498 31,600 2,280 Climbing Jacksonville Center
08:33AM 28.8344 -82.7194 321° Northwest 433 498 33,900 2,100 Climbing Jacksonville Center
08:34AM 28.9219 -82.8025 320° Northwest 428 493 35,800 1,020 Climbing Jacksonville Center
08:35AM 29.0078 -82.8856 320° Northwest 416 479 36,000 60 Climbing Jacksonville Center
08:36AM 29.0953 -82.9686 320° Northwest 411 473 36,000  Level Jacksonville Center
08:37AM 29.1850 -83.0519 321° Northwest 411 473 36,000  Level Jacksonville Center
08:38AM 29.2808 -83.1450 320° Northwest 411 473 36,000  Level Jacksonville Center
08:39AM 29.3706 -83.2308 320° Northwest 411 473 36,000  Level Jacksonville Center
08:40AM 29.4600 -83.3147 321° Northwest 411 473 36,000  Level Jacksonville Center
08:41AM 29.5494 -83.4011 320° Northwest 416 479 36,000  Level Jacksonville Center
08:42AM 29.6389 -83.4828 322° Northwest 416 479 36,000  Level Jacksonville Center
08:43AM 29.7281 -83.5694 320° Northwest 416 479 36,000  Level Jacksonville Center
08:44AM 29.8153 -83.6514 321° Northwest 416 479 36,000  Level Jacksonville Center
08:45AM 29.9047 -83.7361 321° Northwest 416 479 36,000  Level Jacksonville Center
08:46AM 29.9939 -83.8231 320° Northwest 416 479 36,000  Level Jacksonville Center
08:47AM 30.0808 -83.9056 321° Northwest 416 479 36,000  Level Jacksonville Center
08:48AM 30.1678 -83.9931 319° Northwest 416 479 36,000  Level Jacksonville Center
08:49AM 30.2547 -84.0781 320° Northwest 411 473 36,000  Level Jacksonville Center
08:50AM 30.3417 -84.1611 321° Northwest 411 473 36,000  Level Jacksonville Center
08:51AM 30.4306 -84.2464 320° Northwest 411 473 36,000  Level Jacksonville Center
08:52AM 30.5153 -84.3297 320° Northwest 411 473 36,000  Level Jacksonville Center
08:53AM 30.5661 -84.4367 299° West 391 450 36,000  Level Jacksonville Center
08:54AM 30.5833 -84.5647 279° West 376 433 36,000  Level Jacksonville Center
08:55AM 30.6003 -84.6906 279° West 386 444 36,000  Level Jacksonville Center
08:56AM 30.6153 -84.8164 278° West 397 457 36,000  Level Jacksonville Center
08:57AM 30.6322 -84.9422 279° West 397 457 36,000  Level Jacksonville Center
08:58AM 30.6489 -85.0681 279° West 397 457 36,000  Level Jacksonville Center
08:59AM 30.6633 -85.1942 278° West 397 457 36,000  Level Jacksonville Center
09:00AM 30.6797 -85.3178 279° West 397 457 36,000  Level Jacksonville Center
09:01AM 30.6981 -85.4461 279° West 392 451 36,000  Level Jacksonville Center
09:02AM 30.7144 -85.5697 279° West 392 451 36,000  Level Jacksonville Center
09:03AM 30.7283 -85.6958 277° West 392 451 36,000  Level Jacksonville Center
09:04AM 30.7447 -85.8100 280° West 392 451 36,000  Level Jacksonville Center
09:05AM 30.7583 -85.9361 277° West 392 451 36,000  Level Jacksonville Center
09:06AM 30.7761 -86.0600 280° West 392 451 36,000  Level Jacksonville Center
09:07AM 30.7919 -86.1814 279° West 392 451 36,000  Level Jacksonville Center
09:08AM 30.8053 -86.3100 277° West 392 451 36,000  Level Jacksonville Center
09:09AM 30.8206 -86.4364 278° West 392 451 36,000  Level Jacksonville Center
09:10AM 30.8378 -86.5628 279° West 392 451 36,000  Level Jacksonville Center
09:11AM 30.8550 -86.6867 279° West 392 451 36,000  Level Jacksonville Center
09:12AM 30.8700 -86.8156 278° West 392 451 36,000  Level Jacksonville Center
09:14AM 30.9028 -87.1114 277° West 395 455 36,000  Level Houston Center
09:15AM 30.9164 -87.2381 277° West 396 456 36,000  Level Houston Center
09:16AM 30.9308 -87.3636 278° West 393 452 36,000  Level Houston Center
09:17AM 30.9450 -87.4906 277° West 395 455 36,000  Level Houston Center
09:18AM 30.9600 -87.6172 278° West 396 456 36,000  Level Houston Center
09:19AM 30.9747 -87.7594 277° West 395 455 36,000  Level Houston Center
09:20AM 30.9886 -87.8861 277° West 395 455 36,000  Level Houston Center
09:21AM 31.0019 -88.0122 277° West 395 455 36,000  Level Houston Center
09:22AM 31.0111 -88.1386 275° West 393 452 36,000  Level Houston Center
09:23AM 31.0203 -88.2675 275° West 399 459 36,000  Level Houston Center
09:24AM 31.0317 -88.4208 275° West 397 457 36,000  Level Houston Center
09:25AM 31.0397 -88.5492 274° West 398 458 36,000  Level Houston Center
09:26AM 31.0472 -88.6744 274° West 397 457 36,000  Level Houston Center
09:27AM 31.0564 -88.8017 275° West 396 456 36,000  Level Houston Center
09:28AM 31.0647 -88.9306 274° West 395 455 36,000  Level Houston Center
09:29AM 31.0736 -89.0581 275° West 395 455 36,000  Level Houston Center
09:31AM 31.0828 -89.2106 274° West 395 455 36,000  Level Houston Center
09:32AM 31.0908 -89.3381 274° West 396 456 36,000  Level Houston Center
09:33AM 31.1000 -89.4658 275° West 397 457 36,000  Level Houston Center
09:34AM 31.1081 -89.5936 274° West 397 457 36,000  Level Houston Center
09:35AM 31.1161 -89.7222 274° West 398 458 36,000  Level Houston Center
09:36AM 31.1244 -89.8503 274° West 397 457 36,000  Level Houston Center
09:37AM 31.1342 -90.0044 274° West 397 457 36,000  Level Houston Center
09:38AM 31.1414 -90.1322 274° West 395 455 36,000  Level Houston Center
09:39AM 31.1489 -90.2606 274° West 396 456 36,000  Level Houston Center
09:40AM 31.1569 -90.3886 274° West 396 456 36,000  Level Houston Center
09:41AM 31.1656 -90.5167 275° West 396 456 36,000  Level Houston Center
09:42AM 31.1719 -90.6442 273° West 394 453 36,000  Level Houston Center
09:43AM 31.1803 -90.7733 274° West 398 458 36,000  Level Houston Center
09:44AM 31.1867 -90.9272 273° West 394 453 36,000  Level Houston Center
09:45AM 31.1944 -91.0556 274° West 394 453 36,000  Level Houston Center
09:46AM 31.2025 -91.1831 274° West 393 452 36,000  Level Houston Center
09:47AM 31.2083 -91.3119 273° West 397 457 36,000  Level Houston Center
09:48AM 31.2139 -91.4367 273° West 399 459 36,000  Level Houston Center
09:49AM 31.2178 -91.5936 272° West 402 463 36,000  Level Houston Center
09:50AM 31.2239 -91.7219 273° West 398 458 36,000  Level Houston Center
09:51AM 31.2294 -91.8494 273° West 395 455 36,000  Level Houston Center
09:52AM 31.2353 -91.9783 273° West 396 456 36,000  Level Houston Center
09:53AM 31.2389 -92.1025 272° West 391 450 36,000  Level Houston Center
09:54AM 31.2458 -92.2308 274° West 396 456 36,000  Level Houston Center
09:55AM 31.2511 -92.3592 273° West 397 457 36,000  Level Houston Center
09:56AM 31.2614 -92.5119 275° West 396 456 36,000  Level Houston Center
09:57AM 31.3061 -92.6314 294° West 405 466 36,000  Level Houston Center
09:58AM 31.3528 -92.7517 294° West 407 468 36,000  Level Houston Center
09:59AM 31.3969 -92.8697 294° West 401 461 36,000  Level Houston Center
10:00AM 31.4414 -92.9883 294° West 400 460 36,000  Level Houston Center
10:01AM 31.4875 -93.1089 294° West 405 466 36,000  Level Houston Center
10:02AM 31.5408 -93.2522 294° West 403 464 36,000  Level Houston Center
10:03AM 31.5844 -93.3681 294° West 406 467 36,000  Level Houston Center
10:04AM 31.6281 -93.4875 293° West 402 463 36,000  Level Houston Center
10:05AM 31.6536 -93.5625 292° West 410 472 36,000  Level Fort Worth Center
10:06AM 31.6969 -93.6828 293° West 405 466 36,000  Level Fort Worth Center
10:07AM 31.7442 -93.8006 295° West 405 466 36,000  Level Fort Worth Center
10:08AM 31.7706 -93.9239 284° West 405 466 36,000  Level Fort Worth Center
10:09AM 31.7928 -94.0503 282° West 398 458 36,000  Level Fort Worth Center
10:10AM 31.8189 -94.1717 284° West 391 450 36,000  Level Fort Worth Center
10:11AM 31.8431 -94.2978 283° West 391 450 36,000  Level Fort Worth Center
10:12AM 31.8689 -94.4217 284° West 391 450 36,000  Level Fort Worth Center
10:13AM 31.8906 -94.5458 282° West 391 450 36,000  Level Fort Worth Center
10:14AM 31.9164 -94.6722 284° West 391 450 36,000 -240 Level Fort Worth Center
10:15AM 31.9400 -94.7964 283° West 391 450 35,600 -1,020 Descending Fort Worth Center
10:16AM 31.9633 -94.9231 282° West 391 450 34,000 -1,620 Descending Fort Worth Center
10:17AM 31.9867 -95.0497 282° West 391 450 32,400 -1,560 Descending Fort Worth Center
10:18AM 32.0100 -95.1814 282° West 398 458 30,900 -1,320 Descending Fort Worth Center
10:19AM 32.0331 -95.3156 281° West 410 472 29,800 -1,020 Descending Fort Worth Center
10:20AM 32.0603 -95.4522 283° West 420 483 28,900 -900 Descending Fort Worth Center
10:21AM 32.0958 -95.5864 287° West 425 489 28,100 -1,860 Descending Fort Worth Center
10:22AM 32.1372 -95.7108 291° West 425 489 25,200 -2,700 Descending Fort Worth Center
10:23AM 32.1828 -95.8472 292° West 413 475 22,800 -2,100 Descending Fort Worth Center
10:24AM 32.2194 -95.9572 292° West 408 470 21,000 -1,860 Descending Fort Worth Center
10:25AM 32.2628 -96.0892 291° West 403 464 19,100 -1,680 Descending Fort Worth Center
10:26AM 32.2994 -96.1967 292° West 397 457 17,700 -1,620 Descending Fort Worth Center
10:27AM 32.3403 -96.3217 291° West 390 449 16,000 -1,440 Descending Fort Worth Center
10:28AM 32.3722 -96.4172 292° West 369 425 14,800 -1,620 Descending Fort Worth Center
10:29AM 32.4336 -96.5125 307° West 338 389 12,800 -1,920 Descending Fort Worth Center
10:30AM 32.4925 -96.5833 315° West 333 383 11,100 -900 Descending Fort Worth Center
10:31AM 32.5556 -96.6617 314° West 306 352 11,000 -60 Descending Fort Worth Center
10:32AM 32.6039 -96.7206 314° West 283 326 11,000  Level Fort Worth Center
10:33AM 32.6647 -96.7939 315° West 283 326 11,000  Level Fort Worth Center
10:34AM 32.7167 -96.8500 318° Northwest 297 342 11,000  Level Dallas / Fort Worth TRACON
10:35AM 32.7833 -96.9000 328° Northwest 264 304 11,000 -600 Level Dallas / Fort Worth TRACON
10:36AM 32.8333 -96.9000 360° North 274 315 9,900 -1,740 Descending Dallas / Fort Worth TRACON
10:37AM 32.9167 -96.9000 360° North 281 323 7,700 -1,560 Descending Dallas / Fort Worth TRACON
10:38AM 32.9833 -96.9000 360° North 263 303 7,000 -420 Descending Dallas / Fort Worth TRACON
10:39AM 33.0667 -96.9000 360° North 261 300 7,000  Level Dallas / Fort Worth TRACON
10:40AM 33.1333 -96.9000 360° North 262 302 7,000 -180 Level Dallas / Fort Worth TRACON
10:40AM 33.1558 -96.9097 340° North 259 298 6,800 -900 Descending Fort Worth Center
10:42AM 33.2167 -96.9667 322° Northwest 213 245 5,400 -720 Descending Dallas / Fort Worth TRACON
10:43AM 33.1833 -97.0167 231° Southwest 193 222 5,000 -300 Descending Dallas / Fort Worth TRACON
10:44AM 33.1333 -97.0333 196° South 165 190 4,900 -120 Descending Dallas / Fort Worth TRACON